createdAt,value
2023-05-03T00:00:36.920Z,1.72
2023-05-03T00:01:36.998Z,1.70
2023-05-03T00:02:37.033Z,1.91
2023-05-03T00:03:37.043Z,2.21
2023-05-03T00:04:37.039Z,2.04
2023-05-03T00:05:37.100Z,1.71
2023-05-03T00:06:37.122Z,1.87
2023-05-03T00:07:37.116Z,1.69
2023-05-03T00:08:37.127Z,1.90
2023-05-03T00:09:37.162Z,2.33
2023-05-03T00:10:37.204Z,1.68
2023-05-03T00:11:37.193Z,1.86
2023-05-03T00:12:37.261Z,2.16
2023-05-03T00:13:37.309Z,2.06
2023-05-03T00:14:37.319Z,1.80
2023-05-03T00:15:37.390Z,1.87
2023-05-03T00:16:37.408Z,1.58
2023-05-03T00:17:37.470Z,1.85
2023-05-03T00:18:37.441Z,1.93
2023-05-03T00:19:37.515Z,1.89
2023-05-03T00:20:37.524Z,1.88
2023-05-03T00:21:37.633Z,1.73
2023-05-03T00:22:37.603Z,1.56
2023-05-03T00:23:37.590Z,1.61
2023-05-03T00:24:37.658Z,2.56
2023-05-03T00:25:37.661Z,1.94
2023-05-03T00:26:37.691Z,2.04
2023-05-03T00:27:37.706Z,2.07
2023-05-03T00:28:37.785Z,1.87
2023-05-03T00:29:37.834Z,1.96
2023-05-03T00:30:37.848Z,1.71
2023-05-03T00:31:37.898Z,1.82
2023-05-03T00:32:38.071Z,2.62
2023-05-03T00:33:37.929Z,1.92
2023-05-03T00:34:37.987Z,1.84
2023-05-03T00:35:37.964Z,1.87
2023-05-03T00:36:37.966Z,1.80
2023-05-03T00:37:38.057Z,2.01
2023-05-03T00:38:38.056Z,1.80
2023-05-03T00:39:38.050Z,1.62
2023-05-03T00:40:38.112Z,1.60
2023-05-03T00:41:38.219Z,1.44
2023-05-03T00:42:38.186Z,1.84
2023-05-03T00:43:38.232Z,1.41
2023-05-03T00:44:38.301Z,1.84
2023-05-03T00:45:38.270Z,1.89
2023-05-03T00:46:38.289Z,1.56
2023-05-03T00:47:38.453Z,1.69
2023-05-03T00:48:38.369Z,2.05
2023-05-03T00:49:38.391Z,1.71
2023-05-03T00:50:38.460Z,2.33
2023-05-03T00:51:38.458Z,1.81
2023-05-03T00:52:38.509Z,2.01
2023-05-03T00:53:38.514Z,2.08
2023-05-03T00:54:38.675Z,2.08
2023-05-03T00:55:38.592Z,1.63
2023-05-03T00:56:50.476Z,2.33
2023-05-03T00:57:39.622Z,2.40
2023-05-03T00:58:38.625Z,1.93
2023-05-03T00:59:38.611Z,1.50
2023-05-03T01:00:38.581Z,2.27
2023-05-03T01:01:38.725Z,1.93
2023-05-03T01:02:38.679Z,2.15
2023-05-03T01:03:38.699Z,1.80
2023-05-03T01:04:39.108Z,1.82
2023-05-03T01:05:38.590Z,2.12
2023-05-03T01:06:38.648Z,2.14
2023-05-03T01:07:38.582Z,1.73
2023-05-03T01:08:38.563Z,1.75
2023-05-03T01:09:38.578Z,1.67
2023-05-03T01:10:38.578Z,1.70
2023-05-03T01:11:38.618Z,1.50
2023-05-03T01:12:38.646Z,2.20
2023-05-03T01:13:38.652Z,1.95
2023-05-03T01:14:38.773Z,1.77
2023-05-03T01:15:38.766Z,1.61
2023-05-03T01:16:38.900Z,1.91
2023-05-03T01:17:38.835Z,1.52
2023-05-03T01:18:38.892Z,1.67
2023-05-03T01:19:38.963Z,1.83
2023-05-03T01:20:38.969Z,2.10
2023-05-03T01:21:39.003Z,1.69
2023-05-03T01:22:39.064Z,2.07
2023-05-03T01:23:39.068Z,2.19
2023-05-03T01:24:39.104Z,1.77
2023-05-03T01:25:39.295Z,1.60
2023-05-03T01:26:39.197Z,2.01
2023-05-03T01:27:39.256Z,1.75
2023-05-03T01:28:39.315Z,1.83
2023-05-03T01:29:39.367Z,2.13
2023-05-03T01:30:39.381Z,1.36
2023-05-03T01:31:39.536Z,2.28
2023-05-03T01:32:39.554Z,1.67
2023-05-03T01:33:39.480Z,1.99
2023-05-03T01:34:39.561Z,2.04
2023-05-03T01:35:39.556Z,2.27
2023-05-03T01:36:39.608Z,1.93
2023-05-03T01:37:39.696Z,1.80
2023-05-03T01:38:39.709Z,2.55
2023-05-03T01:39:39.739Z,1.79
2023-05-03T01:40:39.780Z,1.96
2023-05-03T01:41:39.808Z,1.67
2023-05-03T01:42:39.871Z,1.90
2023-05-03T01:43:39.924Z,2.36
2023-05-03T01:44:39.937Z,1.94
2023-05-03T01:45:40.033Z,1.95
2023-05-03T01:46:40.173Z,1.87
2023-05-03T01:47:40.084Z,1.75
2023-05-03T01:48:40.118Z,1.79
2023-05-03T01:49:40.162Z,2.55
2023-05-03T01:50:40.222Z,2.24
2023-05-03T01:51:40.224Z,1.84
2023-05-03T01:52:40.297Z,1.82
2023-05-03T01:53:40.309Z,2.17
2023-05-03T01:54:40.345Z,2.30
2023-05-03T01:55:40.433Z,1.56
2023-05-03T01:56:40.481Z,2.26
2023-05-03T01:57:40.483Z,2.08
2023-05-03T01:58:40.547Z,1.92
2023-05-03T01:59:40.606Z,1.92
2023-05-03T02:00:40.614Z,1.66
2023-05-03T02:01:40.799Z,1.99
2023-05-03T02:02:40.743Z,1.73
2023-05-03T02:03:40.737Z,2.11
2023-05-03T02:04:40.884Z,2.04
2023-05-03T02:05:40.831Z,2.26
2023-05-03T02:06:40.953Z,2.01
2023-05-03T02:07:41.076Z,1.60
2023-05-03T02:08:40.968Z,1.54
2023-05-03T02:09:41.037Z,1.80
2023-05-03T02:10:41.079Z,1.95
2023-05-03T02:11:41.117Z,1.63
2023-05-03T02:12:41.147Z,2.17
2023-05-03T02:13:41.263Z,2.56
2023-05-03T02:14:41.314Z,1.94
2023-05-03T02:15:41.345Z,2.37
2023-05-03T02:16:41.384Z,1.92
2023-05-03T02:17:41.470Z,2.01
2023-05-03T02:18:41.428Z,2.62
2023-05-03T02:19:41.505Z,2.01
2023-05-03T02:20:41.574Z,1.79
2023-05-03T02:21:41.665Z,2.34
2023-05-03T02:22:41.680Z,2.05
2023-05-03T02:23:41.680Z,1.67
2023-05-03T02:24:41.746Z,2.10
2023-05-03T02:25:41.800Z,1.80
2023-05-03T02:26:41.856Z,1.93
2023-05-03T02:27:41.867Z,2.35
2023-05-03T02:28:41.934Z,2.50
2023-05-03T02:29:41.996Z,2.28
2023-05-03T02:30:42.048Z,2.35
2023-05-03T02:31:42.119Z,2.45
2023-05-03T02:32:42.122Z,1.72
2023-05-03T02:33:42.163Z,2.13
2023-05-03T02:34:42.225Z,1.84
2023-05-03T02:35:42.279Z,2.08
2023-05-03T02:36:42.353Z,2.08
2023-05-03T02:37:42.393Z,1.85
2023-05-03T02:38:42.407Z,1.65
2023-05-03T02:39:42.474Z,2.13
2023-05-03T02:40:42.633Z,1.77
2023-05-03T02:41:42.525Z,2.11
2023-05-03T02:42:42.619Z,2.20
2023-05-03T02:43:42.753Z,2.01
2023-05-03T02:44:42.805Z,2.13
2023-05-03T02:45:42.748Z,1.96
2023-05-03T02:46:42.894Z,2.30
2023-05-03T02:47:42.969Z,2.27
2023-05-03T02:48:42.951Z,2.00
2023-05-03T02:49:42.982Z,2.04
2023-05-03T02:50:42.976Z,2.12
2023-05-03T02:51:43.049Z,2.14
2023-05-03T02:52:43.132Z,2.14
2023-05-03T02:53:43.178Z,1.88
2023-05-03T02:54:43.312Z,2.51
2023-05-03T02:55:43.211Z,1.99
2023-05-03T02:56:43.233Z,1.96
2023-05-03T02:57:43.341Z,2.18
2023-05-03T02:58:43.343Z,1.85
2023-05-03T02:59:43.423Z,2.31
2023-05-03T03:00:43.619Z,2.26
2023-05-03T03:01:43.609Z,1.89
2023-05-03T03:02:43.658Z,2.13
2023-05-03T03:03:43.723Z,2.05
2023-05-03T03:04:43.653Z,2.45
2023-05-03T03:05:43.686Z,2.41
2023-05-03T03:06:43.852Z,2.13
2023-05-03T03:07:43.778Z,2.78
2023-05-03T03:08:43.828Z,2.31
2023-05-03T03:09:44.326Z,2.05
2023-05-03T03:10:43.922Z,2.56
2023-05-03T03:11:44.037Z,2.13
2023-05-03T03:12:44.039Z,2.06
2023-05-03T03:13:44.130Z,1.99
2023-05-03T03:14:44.124Z,2.31
2023-05-03T03:15:44.173Z,2.92
2023-05-03T03:16:44.250Z,2.06
2023-05-03T03:17:44.316Z,2.01
2023-05-03T03:18:44.364Z,2.16
2023-05-03T03:19:44.422Z,2.28
2023-05-03T03:20:44.441Z,2.18
2023-05-03T03:21:44.506Z,2.45
2023-05-03T03:22:44.534Z,2.47
2023-05-03T03:23:44.682Z,1.91
2023-05-03T03:24:44.649Z,1.94
2023-05-03T03:25:44.732Z,1.92
2023-05-03T03:26:44.790Z,2.23
2023-05-03T03:27:44.790Z,2.18
2023-05-03T03:28:44.910Z,2.60
2023-05-03T03:29:44.964Z,1.80
2023-05-03T03:30:44.977Z,2.32
2023-05-03T03:31:45.081Z,2.59
2023-05-03T03:32:45.110Z,2.01
2023-05-03T03:33:45.118Z,2.10
2023-05-03T03:34:45.198Z,2.66
2023-05-03T03:35:45.241Z,1.92
2023-05-03T03:36:45.282Z,2.24
2023-05-03T03:37:45.362Z,2.15
2023-05-03T03:38:45.427Z,2.13
2023-05-03T03:39:45.486Z,2.51
2023-05-03T03:40:45.505Z,2.57
2023-05-03T03:41:45.606Z,1.87
2023-05-03T03:42:45.681Z,2.08
2023-05-03T03:43:45.762Z,2.07
2023-05-03T03:44:45.725Z,2.31
2023-05-03T03:45:45.831Z,2.08
2023-05-03T03:46:45.862Z,1.86
2023-05-03T03:47:46.095Z,2.19
2023-05-03T03:48:45.939Z,2.21
2023-05-03T03:49:45.963Z,2.33
2023-05-03T03:50:46.067Z,2.03
2023-05-03T03:51:46.124Z,2.10
2023-05-03T03:52:46.147Z,2.19
2023-05-03T03:53:46.206Z,2.50
2023-05-03T03:54:46.257Z,2.18
2023-05-03T03:55:46.354Z,2.31
2023-05-03T03:56:46.385Z,1.96
2023-05-03T03:57:46.372Z,2.50
2023-05-03T03:58:46.433Z,2.28
2023-05-03T03:59:46.509Z,2.08
2023-05-03T04:00:46.528Z,2.14
2023-05-03T04:01:46.607Z,1.89
2023-05-03T04:02:47.266Z,1.79
2023-05-03T04:03:46.780Z,2.13
2023-05-03T04:04:46.686Z,1.89
2023-05-03T04:05:46.656Z,2.11
2023-05-03T04:06:46.727Z,2.45
2023-05-03T04:07:46.651Z,2.56
2023-05-03T04:08:46.651Z,1.86
2023-05-03T04:09:46.676Z,1.97
2023-05-03T04:10:46.666Z,1.51
2023-05-03T04:11:46.752Z,1.81
2023-05-03T04:12:46.694Z,1.69
2023-05-03T04:13:46.731Z,2.00
2023-05-03T04:14:46.734Z,1.79
2023-05-03T04:15:46.748Z,1.70
2023-05-03T04:16:46.876Z,1.62
2023-05-03T04:17:46.913Z,1.45
2023-05-03T04:18:46.774Z,1.41
2023-05-03T04:19:46.778Z,1.73
2023-05-03T04:20:46.869Z,1.39
2023-05-03T04:21:46.887Z,1.29
2023-05-03T04:22:47.006Z,1.73
2023-05-03T04:23:46.948Z,1.11
2023-05-03T04:24:46.971Z,1.33
2023-05-03T04:25:46.982Z,1.38
2023-05-03T04:26:47.037Z,1.63
2023-05-03T04:27:47.001Z,1.64
2023-05-03T04:28:47.041Z,1.48
2023-05-03T04:29:47.003Z,1.45
2023-05-03T04:30:47.058Z,1.47
2023-05-03T04:31:47.062Z,1.69
2023-05-03T04:32:47.134Z,1.61
2023-05-03T04:33:47.143Z,1.43
2023-05-03T04:34:49.074Z,1.38
2023-05-03T04:35:47.259Z,1.53
2023-05-03T04:36:47.253Z,1.35
2023-05-03T04:37:47.303Z,1.32
2023-05-03T04:38:47.369Z,1.44
2023-05-03T04:39:47.437Z,1.57
2023-05-03T04:40:48.311Z,1.60
2023-05-03T04:41:47.527Z,1.34
2023-05-03T04:42:47.595Z,1.26
2023-05-03T04:43:47.654Z,1.65
2023-05-03T04:44:47.723Z,1.06
2023-05-03T04:45:47.783Z,1.52
2023-05-03T04:46:48.839Z,1.37
2023-05-03T04:47:47.906Z,1.59
2023-05-03T04:48:47.855Z,1.64
2023-05-03T04:49:47.854Z,1.44
2023-05-03T04:50:47.812Z,1.43
2023-05-03T04:51:47.848Z,1.76
2023-05-03T04:52:47.847Z,1.64
2023-05-03T04:53:47.793Z,1.26
2023-05-03T04:54:47.790Z,2.01
2023-05-03T04:55:47.799Z,1.78
2023-05-03T04:56:47.824Z,1.35
2023-05-03T04:57:47.756Z,1.66
2023-05-03T04:58:47.766Z,1.21
2023-05-03T04:59:47.765Z,1.31
2023-05-03T05:00:47.729Z,1.63
2023-05-03T05:01:47.789Z,1.46
2023-05-03T05:02:47.846Z,1.44
2023-05-03T05:03:47.787Z,1.42
2023-05-03T05:04:47.698Z,1.51
2023-05-03T05:05:47.682Z,1.57
2023-05-03T05:06:47.736Z,1.23
2023-05-03T05:07:47.697Z,1.48
2023-05-03T05:08:47.706Z,1.70
2023-05-03T05:09:47.682Z,1.46
2023-05-03T05:10:47.687Z,1.62
2023-05-03T05:11:47.737Z,1.55
2023-05-03T05:12:47.703Z,1.18
2023-05-03T05:13:47.649Z,1.69
2023-05-03T05:14:47.725Z,1.67
2023-05-03T05:15:47.627Z,1.54
2023-05-03T05:16:47.712Z,1.62
2023-05-03T05:17:47.820Z,1.53
2023-05-03T05:18:48.558Z,1.76
2023-05-03T05:19:47.656Z,1.55
2023-05-03T05:20:47.597Z,1.45
2023-05-03T05:21:47.601Z,1.58
2023-05-03T05:22:47.677Z,1.63
2023-05-03T05:23:47.822Z,1.45
2023-05-03T05:24:47.821Z,1.50
2023-05-03T05:25:47.851Z,1.82
2023-05-03T05:26:47.952Z,1.51
2023-05-03T05:27:47.960Z,1.82
2023-05-03T05:28:48.044Z,1.70
2023-05-03T05:29:48.165Z,1.27
2023-05-03T05:30:48.185Z,1.39
2023-05-03T05:31:48.302Z,1.55
2023-05-03T05:32:48.300Z,1.33
2023-05-03T05:33:48.352Z,1.57
2023-05-03T05:34:48.398Z,1.45
2023-05-03T05:35:48.578Z,1.43
2023-05-03T05:36:48.528Z,1.25
2023-05-03T05:37:49.562Z,1.10
2023-05-03T05:38:48.530Z,1.29
2023-05-03T05:39:48.572Z,1.76
2023-05-03T05:40:48.611Z,1.43
2023-05-03T05:41:48.613Z,1.43
2023-05-03T05:42:48.664Z,1.46
2023-05-03T05:43:48.765Z,1.33
2023-05-03T05:44:48.775Z,2.33
2023-05-03T05:45:48.785Z,1.99
2023-05-03T05:46:48.829Z,1.57
2023-05-03T05:47:48.960Z,1.72
2023-05-03T05:48:48.885Z,2.06
2023-05-03T05:49:49.022Z,2.21
2023-05-03T05:50:49.027Z,2.09
2023-05-03T05:51:49.263Z,2.00
2023-05-03T05:52:49.155Z,1.50
2023-05-03T05:53:49.217Z,1.42
2023-05-03T05:54:49.269Z,1.73
2023-05-03T05:55:49.278Z,1.59
2023-05-03T05:56:49.350Z,1.72
2023-05-03T05:57:49.436Z,1.78
2023-05-03T05:58:49.492Z,1.55
2023-05-03T05:59:49.559Z,1.11
2023-05-03T06:00:49.614Z,1.52
2023-05-03T06:01:49.687Z,1.73
2023-05-03T06:02:50.045Z,1.73
2023-05-03T06:03:49.774Z,1.62
2023-05-03T06:04:49.887Z,2.05
2023-05-03T06:05:49.866Z,1.86
2023-05-03T06:06:49.993Z,1.98
2023-05-03T06:07:50.009Z,1.85
2023-05-03T06:08:50.066Z,1.53
2023-05-03T06:09:50.129Z,1.80
2023-05-03T06:10:50.178Z,1.63
2023-05-03T06:11:50.217Z,1.42
2023-05-03T06:12:50.294Z,1.64
2023-05-03T06:13:50.354Z,1.75
2023-05-03T06:15:01.410Z,1.90
2023-05-03T06:15:51.410Z,2.00
2023-05-03T06:16:50.722Z,1.71
2023-05-03T06:17:50.460Z,1.75
2023-05-03T06:18:50.396Z,1.84
2023-05-03T06:19:50.411Z,1.84
2023-05-03T06:20:50.384Z,2.18
2023-05-03T06:21:50.360Z,1.73
2023-05-03T06:22:50.341Z,2.41
2023-05-03T06:23:50.386Z,2.03
2023-05-03T06:24:50.424Z,1.69
2023-05-03T06:25:50.361Z,1.73
2023-05-03T06:26:50.350Z,2.06
2023-05-03T06:27:50.342Z,2.17
2023-05-03T06:28:50.399Z,1.65
2023-05-03T06:29:50.419Z,1.87
2023-05-03T06:30:50.600Z,1.89
2023-05-03T06:31:50.521Z,1.83
2023-05-03T06:32:50.587Z,1.66
2023-05-03T06:33:50.548Z,1.57
2023-05-03T06:34:50.625Z,2.23
2023-05-03T06:35:50.633Z,2.25
2023-05-03T06:36:50.682Z,3.42
2023-05-03T06:37:50.835Z,3.52
2023-05-03T06:38:50.854Z,3.85
2023-05-03T06:39:50.965Z,4.21
2023-05-03T06:40:50.805Z,5.26
2023-05-03T06:41:50.823Z,4.75
2023-05-03T06:42:50.865Z,3.87
2023-05-03T06:43:50.905Z,3.03
2023-05-03T06:44:51.004Z,3.79
2023-05-03T06:45:51.009Z,3.03
2023-05-03T06:46:51.027Z,3.10
2023-05-03T06:47:51.030Z,3.69
2023-05-03T06:48:51.050Z,2.94
2023-05-03T06:49:51.034Z,2.65
2023-05-03T06:50:51.064Z,2.63
2023-05-03T06:51:51.075Z,2.60
2023-05-03T06:52:51.151Z,2.96
2023-05-03T06:53:51.252Z,2.39
2023-05-03T06:54:51.320Z,2.69
2023-05-03T06:55:51.305Z,2.90
2023-05-03T06:56:51.794Z,2.09
2023-05-03T06:57:51.426Z,2.17
2023-05-03T06:58:51.453Z,2.28
2023-05-03T06:59:51.502Z,1.91
2023-05-03T07:00:51.543Z,2.32
2023-05-03T07:01:51.616Z,2.27
2023-05-03T07:02:51.703Z,2.11
2023-05-03T07:03:51.807Z,2.33
2023-05-03T07:04:51.719Z,2.22
2023-05-03T07:05:51.792Z,2.15
2023-05-03T07:06:56.516Z,2.12
2023-05-03T07:07:52.798Z,1.73
2023-05-03T07:08:51.791Z,2.22
2023-05-03T07:09:51.809Z,2.18
2023-05-03T07:10:51.766Z,1.64
2023-05-03T07:11:51.738Z,2.19
2023-05-03T07:12:51.741Z,2.25
2023-05-03T07:13:51.766Z,2.79
2023-05-03T07:14:51.752Z,1.76
2023-05-03T07:15:51.830Z,2.13
2023-05-03T07:16:51.729Z,2.32
2023-05-03T07:17:51.764Z,2.20
2023-05-03T07:18:51.773Z,1.97
2023-05-03T07:19:51.674Z,1.81
2023-05-03T07:20:51.713Z,1.60
2023-05-03T07:21:51.719Z,1.92
2023-05-03T07:22:51.695Z,1.95
2023-05-03T07:23:51.706Z,2.19
2023-05-03T07:24:51.710Z,1.54
2023-05-03T07:25:51.673Z,1.92
2023-05-03T07:26:51.731Z,1.84
2023-05-03T07:27:51.714Z,1.93
2023-05-03T07:28:51.803Z,1.57
2023-05-03T07:29:51.692Z,2.08
2023-05-03T07:30:51.746Z,2.82
2023-05-03T07:31:53.416Z,3.08
2023-05-03T07:32:51.909Z,3.74
2023-05-03T07:33:52.020Z,5.02
2023-05-03T07:34:51.834Z,3.77
2023-05-03T07:35:51.889Z,4.80
2023-05-03T07:36:51.922Z,4.03
2023-05-03T07:37:51.957Z,4.17
2023-05-03T07:38:52.022Z,4.62
2023-05-03T07:39:52.022Z,3.45
2023-05-03T07:40:52.034Z,3.29
2023-05-03T07:41:52.089Z,3.12
2023-05-03T07:42:52.056Z,3.27
2023-05-03T07:43:52.134Z,3.22
2023-05-03T07:44:52.226Z,3.36
2023-05-03T07:45:52.268Z,3.20
2023-05-03T07:46:52.340Z,2.81
2023-05-03T07:47:52.302Z,3.01
2023-05-03T07:48:52.369Z,2.94
2023-05-03T07:49:52.393Z,2.77
2023-05-03T07:50:52.489Z,2.72
2023-05-03T07:51:52.514Z,2.60
2023-05-03T07:52:52.583Z,2.09
2023-05-03T07:53:52.594Z,2.26
2023-05-03T07:54:52.660Z,3.54
2023-05-03T07:55:52.720Z,4.89
2023-05-03T07:56:55.029Z,4.04
2023-05-03T07:57:52.702Z,4.61
2023-05-03T07:59:04.726Z,3.86
2023-05-03T07:59:53.700Z,4.02
2023-05-03T08:00:52.756Z,3.92
2023-05-03T08:01:52.703Z,3.28
2023-05-03T08:02:52.951Z,3.36
2023-05-03T08:03:52.838Z,2.99
2023-05-03T08:04:52.997Z,2.90
2023-05-03T08:05:52.645Z,3.91
2023-05-03T08:06:52.865Z,3.74
2023-05-03T08:07:52.667Z,3.69
2023-05-03T08:08:52.626Z,3.59
2023-05-03T08:09:52.616Z,4.13
2023-05-03T08:10:52.674Z,4.40
2023-05-03T08:11:52.867Z,4.13
2023-05-03T08:12:52.665Z,3.81
2023-05-03T08:13:52.631Z,2.88
2023-05-03T08:14:52.588Z,2.58
2023-05-03T08:15:52.669Z,2.62
2023-05-03T08:16:52.675Z,3.09
2023-05-03T08:17:52.625Z,2.81
2023-05-03T08:18:52.644Z,2.48
2023-05-03T08:19:52.712Z,3.01
2023-05-03T08:20:52.787Z,3.34
2023-05-03T08:21:52.809Z,2.77
2023-05-03T08:22:52.880Z,2.51
2023-05-03T08:23:52.914Z,2.61
2023-05-03T08:24:52.937Z,2.34
2023-05-03T08:25:52.938Z,2.48
2023-05-03T08:26:53.020Z,2.22
2023-05-03T08:27:52.991Z,2.23
2023-05-03T08:28:53.097Z,2.19
2023-05-03T08:29:53.130Z,3.21
2023-05-03T08:30:53.139Z,2.61
2023-05-03T08:31:53.238Z,2.47
2023-05-03T08:32:53.270Z,2.13
2023-05-03T08:33:53.246Z,1.67
2023-05-03T08:34:53.206Z,1.90
2023-05-03T08:35:53.273Z,3.02
2023-05-03T08:36:53.276Z,2.41
2023-05-03T08:37:53.311Z,2.79
2023-05-03T08:38:53.343Z,2.56
2023-05-03T08:39:53.344Z,2.07
2023-05-03T08:40:53.300Z,2.11
2023-05-03T08:41:53.367Z,2.42
2023-05-03T08:42:53.342Z,2.08
2023-05-03T08:43:53.361Z,2.77
2023-05-03T08:44:53.358Z,3.55
2023-05-03T08:45:53.356Z,2.30
2023-05-03T08:46:53.368Z,2.17
2023-05-03T08:47:53.509Z,2.38
2023-05-03T08:48:53.490Z,2.72
2023-05-03T08:49:53.490Z,2.27
2023-05-03T08:50:53.524Z,2.59
2023-05-03T08:51:53.527Z,2.45
2023-05-03T08:52:53.597Z,2.31
2023-05-03T08:53:53.672Z,2.33
2023-05-03T08:54:53.685Z,1.80
2023-05-03T08:55:53.743Z,2.28
2023-05-03T08:56:53.729Z,1.99
2023-05-03T08:57:53.797Z,2.44
2023-05-03T08:58:53.862Z,2.48
2023-05-03T08:59:53.910Z,2.29
2023-05-03T09:00:53.873Z,2.30
2023-05-03T09:01:55.224Z,2.73
2023-05-03T09:02:54.148Z,2.31
2023-05-03T09:03:54.113Z,2.22
2023-05-03T09:04:54.156Z,2.27
2023-05-03T09:05:54.160Z,1.74
2023-05-03T09:06:54.313Z,2.30
2023-05-03T09:07:54.230Z,1.69
2023-05-03T09:08:54.245Z,1.69
2023-05-03T09:09:54.268Z,1.87
2023-05-03T09:10:54.251Z,2.27
2023-05-03T09:11:54.330Z,1.88
2023-05-03T09:12:54.366Z,1.70
2023-05-03T09:13:54.376Z,2.12
2023-05-03T09:14:54.455Z,1.69
2023-05-03T09:15:54.629Z,1.67
2023-05-03T09:16:54.608Z,2.45
2023-05-03T09:17:54.585Z,2.07
2023-05-03T09:18:54.615Z,1.41
2023-05-03T09:19:54.589Z,1.78
2023-05-03T09:20:54.640Z,2.45
2023-05-03T09:21:54.638Z,1.96
2023-05-03T09:22:54.688Z,2.03
2023-05-03T09:23:54.770Z,1.91
2023-05-03T09:24:54.732Z,2.19
2023-05-03T09:25:54.779Z,1.39
2023-05-03T09:26:54.790Z,1.97
2023-05-03T09:27:54.791Z,1.93
2023-05-03T09:28:54.869Z,2.42
2023-05-03T09:29:54.883Z,1.58
2023-05-03T09:30:54.923Z,1.76
2023-05-03T09:31:55.000Z,1.68
2023-05-03T09:32:55.061Z,1.99
2023-05-03T09:33:55.125Z,2.29
2023-05-03T09:34:55.095Z,2.28
2023-05-03T09:35:55.155Z,1.94
2023-05-03T09:36:55.252Z,2.35
2023-05-03T09:37:55.229Z,2.32
2023-05-03T09:38:55.292Z,2.28
2023-05-03T09:39:55.336Z,2.10
2023-05-03T09:40:55.411Z,1.95
2023-05-03T09:41:55.416Z,1.87
2023-05-03T09:42:55.497Z,2.46
2023-05-03T09:43:55.551Z,2.29
2023-05-03T09:45:52.417Z,1.95
2023-05-03T09:46:52.248Z,2.14
2023-05-03T09:47:52.334Z,1.69
2023-05-03T09:48:52.274Z,1.97
2023-05-03T09:49:52.231Z,1.64
2023-05-03T09:50:52.244Z,2.04
2023-05-03T09:51:52.216Z,1.70
2023-05-03T09:52:52.224Z,2.05
2023-05-03T09:53:52.214Z,1.82
2023-05-03T09:54:52.211Z,1.52
2023-05-03T09:55:52.184Z,2.16
2023-05-03T09:56:52.180Z,2.51
2023-05-03T09:57:52.209Z,1.69
2023-05-03T09:58:52.189Z,1.94
2023-05-03T09:59:52.204Z,2.04
2023-05-03T10:00:52.746Z,2.12
2023-05-03T10:01:52.227Z,1.96
2023-05-03T10:02:52.204Z,1.94
2023-05-03T10:03:52.152Z,2.03
2023-05-03T10:04:52.190Z,1.41
2023-05-03T10:05:52.118Z,1.54
2023-05-03T10:06:52.183Z,1.74
2023-05-03T10:07:52.127Z,1.72
2023-05-03T10:08:52.123Z,1.55
2023-05-03T10:09:52.114Z,1.64
2023-05-03T10:10:52.106Z,1.89
2023-05-03T10:11:52.082Z,1.42
2023-05-03T10:12:52.119Z,1.24
2023-05-03T10:13:52.056Z,1.87
2023-05-03T10:14:52.056Z,1.66
2023-05-03T10:15:52.059Z,1.47
2023-05-03T10:16:52.059Z,1.75
2023-05-03T10:17:52.086Z,1.87
2023-05-03T10:18:52.049Z,1.49
2023-05-03T10:19:52.016Z,1.21
2023-05-03T10:20:52.041Z,1.54
2023-05-03T10:21:52.042Z,1.38
2023-05-03T10:22:51.986Z,1.68
2023-05-03T10:23:52.000Z,1.57
2023-05-03T10:24:51.987Z,1.49
2023-05-03T10:25:52.023Z,2.21
2023-05-03T10:26:51.982Z,3.14
2023-05-03T10:27:52.012Z,2.43
2023-05-03T10:28:51.988Z,2.51
2023-05-03T10:29:51.936Z,2.27
2023-05-03T10:30:51.966Z,2.93
2023-05-03T10:31:51.982Z,2.63
2023-05-03T10:32:52.012Z,2.33
2023-05-03T10:33:51.948Z,2.19
2023-05-03T10:34:51.923Z,2.02
2023-05-03T10:35:51.964Z,2.48
2023-05-03T10:36:51.915Z,3.03
2023-05-03T10:37:51.930Z,1.95
2023-05-03T10:38:51.881Z,2.22
2023-05-03T10:39:51.932Z,2.54
2023-05-03T10:40:51.884Z,2.57
2023-05-03T10:41:51.891Z,2.23
2023-05-03T10:42:51.853Z,1.45
2023-05-03T10:43:51.892Z,1.87
2023-05-03T10:44:51.845Z,1.96
2023-05-03T10:45:51.880Z,1.78
2023-05-03T10:46:52.094Z,1.76
2023-05-03T10:47:51.888Z,1.62
2023-05-03T10:48:51.824Z,2.11
2023-05-03T10:49:51.813Z,1.49
2023-05-03T10:50:51.906Z,1.90
2023-05-03T10:51:51.855Z,1.71
2023-05-03T10:52:51.801Z,1.73
2023-05-03T10:53:51.789Z,1.43
2023-05-03T10:54:51.829Z,1.38
2023-05-03T10:55:51.904Z,1.55
2023-05-03T10:56:51.926Z,1.60
2023-05-03T10:57:51.997Z,1.55
2023-05-03T10:58:52.086Z,1.40
2023-05-03T10:59:52.153Z,1.38
2023-05-03T11:00:52.122Z,1.56
2023-05-03T11:01:52.218Z,1.04
2023-05-03T11:02:52.333Z,1.48
2023-05-03T11:03:52.320Z,1.56
2023-05-03T11:04:52.492Z,1.23
2023-05-03T11:05:52.441Z,1.54
2023-05-03T11:06:52.552Z,1.43
2023-05-03T11:07:52.636Z,1.31
2023-05-03T11:08:52.649Z,1.50
2023-05-03T11:09:52.636Z,1.15
2023-05-03T11:10:52.735Z,1.32
2023-05-03T11:11:52.777Z,1.80
2023-05-03T11:12:52.788Z,1.44
2023-05-03T11:13:52.884Z,1.50
2023-05-03T11:14:52.896Z,1.78
2023-05-03T11:15:52.985Z,1.67
2023-05-03T11:16:53.009Z,1.68
2023-05-03T11:17:53.144Z,1.21
2023-05-03T11:18:53.086Z,1.49
2023-05-03T11:19:53.085Z,1.63
2023-05-03T11:20:53.161Z,1.54
2023-05-03T11:21:53.182Z,1.35
2023-05-03T11:22:53.164Z,1.35
2023-05-03T11:23:53.204Z,1.42
2023-05-03T11:24:53.233Z,1.40
2023-05-03T11:25:53.297Z,1.66
2023-05-03T11:26:53.287Z,1.60
2023-05-03T11:27:53.346Z,1.35
2023-05-03T11:28:53.467Z,1.55
2023-05-03T11:29:53.424Z,1.04
2023-05-03T11:30:53.435Z,1.45
2023-05-03T11:31:53.507Z,1.27
2023-05-03T11:32:53.537Z,1.17
2023-05-03T11:33:53.557Z,1.08
2023-05-03T11:34:53.588Z,1.40
2023-05-03T11:35:53.653Z,1.21
2023-05-03T11:36:53.674Z,0.97
2023-05-03T11:37:53.721Z,1.32
2023-05-03T11:38:53.807Z,1.19
2023-05-03T11:39:53.805Z,1.22
2023-05-03T11:40:53.851Z,1.22
2023-05-03T11:41:53.931Z,1.17
2023-05-03T11:42:53.971Z,1.07
2023-05-03T11:44:04.066Z,0.94
2023-05-03T11:44:55.036Z,1.07
2023-05-03T11:45:54.010Z,1.18
2023-05-03T11:46:54.052Z,1.16
2023-05-03T11:47:54.023Z,1.04
2023-05-03T11:48:53.971Z,1.09
2023-05-03T11:49:53.980Z,0.97
2023-05-03T11:50:53.937Z,1.05
2023-05-03T11:51:55.220Z,1.08
2023-05-03T11:52:53.943Z,1.00
2023-05-03T11:53:53.940Z,0.89
2023-05-03T11:54:53.897Z,0.74
2023-05-03T11:55:53.964Z,1.20
2023-05-03T11:56:53.965Z,1.21
2023-05-03T11:57:53.987Z,1.35
2023-05-03T11:58:53.937Z,1.33
2023-05-03T11:59:53.990Z,1.52
2023-05-03T12:00:53.993Z,0.87
2023-05-03T12:01:54.011Z,1.07
2023-05-03T12:02:54.188Z,0.87
2023-05-03T12:03:54.245Z,1.00
2023-05-03T12:04:54.717Z,0.92
2023-05-03T12:05:54.514Z,1.02
2023-05-03T12:07:54.736Z,1.07
2023-05-03T12:08:54.907Z,0.64
2023-05-03T12:10:09.435Z,0.82
2023-05-03T12:11:55.224Z,1.09
2023-05-03T12:12:54.429Z,0.83
2023-05-03T12:13:54.671Z,0.82
2023-05-03T12:14:55.072Z,1.01
2023-05-03T12:16:09.245Z,1.02
2023-05-03T12:17:55.008Z,0.95
2023-05-03T12:22:13.258Z,1.08
2023-05-03T12:23:55.971Z,0.92
2023-05-03T12:24:54.217Z,1.14
2023-05-03T12:26:55.179Z,1.23
2023-05-03T12:29:55.026Z,0.85
2023-05-03T12:30:54.218Z,1.01
2023-05-03T12:31:54.193Z,1.43
2023-05-03T12:32:54.287Z,1.17
2023-05-03T12:34:13.297Z,1.01
2023-05-03T12:34:56.788Z,0.84
2023-05-03T12:35:54.826Z,1.03
2023-05-03T12:36:54.364Z,0.96
2023-05-03T12:38:56.189Z,0.90
2023-05-03T12:40:09.371Z,0.98
2023-05-03T12:40:55.396Z,1.17
2023-05-03T12:42:07.206Z,0.93
2023-05-03T12:42:55.320Z,0.91
2023-05-03T12:43:54.364Z,0.80
2023-05-03T12:44:55.890Z,0.84
2023-05-03T12:46:54.435Z,0.81
2023-05-03T12:47:54.359Z,0.69
2023-05-03T12:48:54.648Z,0.81
2023-05-03T12:49:54.406Z,1.20
2023-05-03T12:50:57.668Z,1.07
2023-05-03T12:52:11.168Z,1.20
2023-05-03T12:52:55.319Z,1.23
2023-05-03T12:53:55.502Z,0.89
2023-05-03T12:55:57.469Z,1.08
2023-05-03T12:56:55.455Z,0.89
2023-05-03T13:00:02.240Z,1.05
2023-05-03T13:04:08.311Z,1.11
2023-05-03T13:04:58.914Z,0.96
2023-05-03T13:05:54.326Z,1.06
2023-05-03T13:06:58.918Z,1.30
2023-05-03T13:07:56.310Z,1.13
2023-05-03T13:08:56.937Z,0.99
2023-05-03T13:10:55.445Z,1.01
2023-05-03T13:11:54.420Z,1.06
2023-05-03T13:12:54.340Z,1.14
2023-05-03T13:13:54.365Z,1.06
2023-05-03T13:14:54.352Z,1.04
2023-05-03T13:15:54.384Z,0.90
2023-05-03T13:16:54.379Z,0.98
2023-05-03T13:17:54.306Z,1.04
2023-05-03T13:18:54.312Z,1.21
2023-05-03T13:19:54.346Z,0.98
2023-05-03T13:20:54.300Z,1.06
2023-05-03T13:21:54.307Z,1.33
2023-05-03T13:22:54.315Z,0.96
2023-05-03T13:23:54.321Z,0.79
2023-05-03T13:24:54.272Z,0.98
2023-05-03T13:25:54.271Z,0.86
2023-05-03T13:26:54.339Z,1.11
2023-05-03T13:27:54.245Z,1.10
2023-05-03T13:28:54.253Z,1.44
2023-05-03T13:29:54.264Z,0.76
2023-05-03T13:30:54.257Z,0.69
2023-05-03T13:31:54.333Z,0.72
2023-05-03T13:32:54.259Z,0.75
2023-05-03T13:33:54.225Z,0.97
2023-05-03T13:34:54.219Z,0.71
2023-05-03T13:35:54.179Z,0.99
2023-05-03T13:36:54.223Z,0.86
2023-05-03T13:37:54.216Z,1.10
2023-05-03T13:38:54.151Z,0.88